sensor_id;sensor_type;location;lat;lon;timestamp;P1;durP1;ratioP1;P2;durP2;ratioP2
19651;SDS011;9974;52.146;14.668;2023-08-30T00:00:40;0.20;;;0.20;;
19651;SDS011;9974;52.146;14.668;2023-08-30T00:03:06;0.13;;;0.13;;
19651;SDS011;9974;52.146;14.668;2023-08-30T00:05:32;0.20;;;0.13;;
19651;SDS011;9974;52.146;14.668;2023-08-30T00:07:58;0.10;;;0.10;;
19651;SDS011;9974;52.146;14.668;2023-08-30T00:10:24;0.93;;;0.30;;
19651;SDS011;9974;52.146;14.668;2023-08-30T00:12:50;0.10;;;0.10;;
19651;SDS011;9974;52.146;14.668;2023-08-30T00:15:15;0.20;;;0.20;;
19651;SDS011;9974;52.146;14.668;2023-08-30T00:17:41;0.10;;;0.10;;
19651;SDS011;9974;52.146;14.668;2023-08-30T00:20:08;0.15;;;0.15;;
19651;SDS011;9974;52.146;14.668;2023-08-30T00:22:34;0.10;;;0.10;;
19651;SDS011;9974;52.146;14.668;2023-08-30T00:25:01;0.43;;;0.30;;
19651;SDS011;9974;52.146;14.668;2023-08-30T00:27:26;0.05;;;0.05;;
19651;SDS011;9974;52.146;14.668;2023-08-30T00:29:52;0.25;;;0.25;;
19651;SDS011;9974;52.146;14.668;2023-08-30T00:32:18;0.17;;;0.17;;
19651;SDS011;9974;52.146;14.668;2023-08-30T00:34:44;0.52;;;0.40;;
19651;SDS011;9974;52.146;14.668;2023-08-30T00:37:10;0.00;;;0.00;;
19651;SDS011;9974;52.146;14.668;2023-08-30T00:39:38;0.45;;;0.45;;
19651;SDS011;9974;52.146;14.668;2023-08-30T00:42:05;0.35;;;0.35;;
19651;SDS011;9974;52.146;14.668;2023-08-30T00:44:32;0.10;;;0.10;;
19651;SDS011;9974;52.146;14.668;2023-08-30T00:47:01;0.10;;;0.10;;
19651;SDS011;9974;52.146;14.668;2023-08-30T00:49:29;0.10;;;0.10;;
19651;SDS011;9974;52.146;14.668;2023-08-30T00:51:55;0.10;;;0.10;;
19651;SDS011;9974;52.146;14.668;2023-08-30T00:54:22;0.10;;;0.10;;
19651;SDS011;9974;52.146;14.668;2023-08-30T00:56:48;0.15;;;0.15;;
19651;SDS011;9974;52.146;14.668;2023-08-30T00:59:15;0.10;;;0.10;;
19651;SDS011;9974;52.146;14.668;2023-08-30T01:01:41;0.10;;;0.10;;
19651;SDS011;9974;52.146;14.668;2023-08-30T01:04:06;0.13;;;0.13;;
19651;SDS011;9974;52.146;14.668;2023-08-30T01:06:33;0.10;;;0.10;;
19651;SDS011;9974;52.146;14.668;2023-08-30T01:09:00;0.40;;;0.40;;
19651;SDS011;9974;52.146;14.668;2023-08-30T01:11:30;0.00;;;0.00;;
19651;SDS011;9974;52.146;14.668;2023-08-30T01:16:34;0.20;;;0.20;;
19651;SDS011;9974;52.146;14.668;2023-08-30T01:19:03;0.63;;;0.63;;
19651;SDS011;9974;52.146;14.668;2023-08-30T01:24:22;1.45;;;1.00;;
19651;SDS011;9974;52.146;14.668;2023-08-30T01:27:07;0.32;;;0.32;;
19651;SDS011;9974;52.146;14.668;2023-08-30T01:29:35;1.15;;;0.95;;
19651;SDS011;9974;52.146;14.668;2023-08-30T01:32:03;0.65;;;0.25;;
19651;SDS011;9974;52.146;14.668;2023-08-30T01:34:30;0.10;;;0.10;;
19651;SDS011;9974;52.146;14.668;2023-08-30T01:36:57;0.10;;;0.10;;
19651;SDS011;9974;52.146;14.668;2023-08-30T01:39:23;0.17;;;0.17;;
19651;SDS011;9974;52.146;14.668;2023-08-30T01:41:50;0.10;;;0.10;;
19651;SDS011;9974;52.146;14.668;2023-08-30T01:44:20;0.10;;;0.10;;
19651;SDS011;9974;52.146;14.668;2023-08-30T01:46:46;0.00;;;0.00;;
19651;SDS011;9974;52.146;14.668;2023-08-30T01:49:14;0.10;;;0.10;;
19651;SDS011;9974;52.146;14.668;2023-08-30T01:51:40;0.25;;;0.25;;
19651;SDS011;9974;52.146;14.668;2023-08-30T01:54:06;1.00;;;0.45;;
19651;SDS011;9974;52.146;14.668;2023-08-30T01:56:34;0.52;;;0.45;;
19651;SDS011;9974;52.146;14.668;2023-08-30T01:59:00;0.25;;;0.25;;
19651;SDS011;9974;52.146;14.668;2023-08-30T02:01:25;0.80;;;0.68;;
19651;SDS011;9974;52.146;14.668;2023-08-30T02:03:51;0.90;;;0.90;;
19651;SDS011;9974;52.146;14.668;2023-08-30T02:06:26;1.83;;;1.23;;
19651;SDS011;9974;52.146;14.668;2023-08-30T02:09:07;0.47;;;0.47;;
19651;SDS011;9974;52.146;14.668;2023-08-30T02:11:43;1.17;;;1.05;;
19651;SDS011;9974;52.146;14.668;2023-08-30T02:14:11;0.22;;;0.22;;
19651;SDS011;9974;52.146;14.668;2023-08-30T02:16:42;5.82;;;0.65;;
19651;SDS011;9974;52.146;14.668;2023-08-30T02:19:10;1.58;;;1.48;;
19651;SDS011;9974;52.146;14.668;2023-08-30T02:21:37;0.05;;;0.05;;
19651;SDS011;9974;52.146;14.668;2023-08-30T02:24:05;4.97;;;2.35;;
19651;SDS011;9974;52.146;14.668;2023-08-30T02:26:31;0.68;;;0.65;;
19651;SDS011;9974;52.146;14.668;2023-08-30T02:28:57;6.47;;;1.63;;
19651;SDS011;9974;52.146;14.668;2023-08-30T02:31:22;9.02;;;2.70;;
19651;SDS011;9974;52.146;14.668;2023-08-30T02:33:48;2.05;;;1.85;;
19651;SDS011;9974;52.146;14.668;2023-08-30T02:36:14;0.90;;;0.88;;
19651;SDS011;9974;52.146;14.668;2023-08-30T02:38:39;0.30;;;0.20;;
19651;SDS011;9974;52.146;14.668;2023-08-30T02:41:05;1.23;;;1.10;;
19651;SDS011;9974;52.146;14.668;2023-08-30T02:43:32;1.05;;;0.95;;
19651;SDS011;9974;52.146;14.668;2023-08-30T02:45:57;2.95;;;0.95;;
19651;SDS011;9974;52.146;14.668;2023-08-30T02:48:23;1.08;;;0.98;;
19651;SDS011;9974;52.146;14.668;2023-08-30T02:50:49;1.98;;;1.10;;
19651;SDS011;9974;52.146;14.668;2023-08-30T02:53:14;3.20;;;1.98;;
19651;SDS011;9974;52.146;14.668;2023-08-30T02:55:40;1.13;;;0.77;;
19651;SDS011;9974;52.146;14.668;2023-08-30T02:58:06;0.55;;;0.55;;
19651;SDS011;9974;52.146;14.668;2023-08-30T03:00:31;0.45;;;0.45;;
19651;SDS011;9974;52.146;14.668;2023-08-30T03:02:59;0.40;;;0.40;;
19651;SDS011;9974;52.146;14.668;2023-08-30T03:05:25;0.20;;;0.20;;
19651;SDS011;9974;52.146;14.668;2023-08-30T03:07:52;0.30;;;0.30;;
19651;SDS011;9974;52.146;14.668;2023-08-30T03:10:18;1.92;;;1.55;;
19651;SDS011;9974;52.146;14.668;2023-08-30T03:12:44;0.52;;;0.52;;
19651;SDS011;9974;52.146;14.668;2023-08-30T03:15:09;0.43;;;0.43;;
19651;SDS011;9974;52.146;14.668;2023-08-30T03:17:35;0.28;;;0.28;;
19651;SDS011;9974;52.146;14.668;2023-08-30T03:20:02;0.90;;;0.45;;
19651;SDS011;9974;52.146;14.668;2023-08-30T03:22:31;1.00;;;0.70;;
19651;SDS011;9974;52.146;14.668;2023-08-30T03:24:57;0.90;;;0.32;;
19651;SDS011;9974;52.146;14.668;2023-08-30T03:27:23;1.08;;;0.80;;
19651;SDS011;9974;52.146;14.668;2023-08-30T03:29:49;0.10;;;0.10;;
19651;SDS011;9974;52.146;14.668;2023-08-30T03:32:15;0.40;;;0.40;;
19651;SDS011;9974;52.146;14.668;2023-08-30T03:34:46;0.35;;;0.35;;
19651;SDS011;9974;52.146;14.668;2023-08-30T03:37:13;1.25;;;0.32;;
19651;SDS011;9974;52.146;14.668;2023-08-30T03:39:39;0.10;;;0.10;;
19651;SDS011;9974;52.146;14.668;2023-08-30T03:42:05;1.13;;;1.08;;
19651;SDS011;9974;52.146;14.668;2023-08-30T03:44:31;0.63;;;0.57;;
19651;SDS011;9974;52.146;14.668;2023-08-30T03:46:57;0.10;;;0.10;;
19651;SDS011;9974;52.146;14.668;2023-08-30T03:49:23;0.52;;;0.52;;
19651;SDS011;9974;52.146;14.668;2023-08-30T03:51:48;0.30;;;0.30;;
19651;SDS011;9974;52.146;14.668;2023-08-30T03:54:14;0.57;;;0.57;;
19651;SDS011;9974;52.146;14.668;2023-08-30T03:56:44;0.20;;;0.20;;
19651;SDS011;9974;52.146;14.668;2023-08-30T03:59:11;1.13;;;0.90;;
19651;SDS011;9974;52.146;14.668;2023-08-30T04:01:37;0.20;;;0.20;;
19651;SDS011;9974;52.146;14.668;2023-08-30T04:04:02;0.30;;;0.30;;
19651;SDS011;9974;52.146;14.668;2023-08-30T04:06:29;0.15;;;0.15;;
19651;SDS011;9974;52.146;14.668;2023-08-30T04:08:55;0.60;;;0.60;;
19651;SDS011;9974;52.146;14.668;2023-08-30T04:11:21;0.28;;;0.20;;
19651;SDS011;9974;52.146;14.668;2023-08-30T04:13:46;0.22;;;0.22;;
19651;SDS011;9974;52.146;14.668;2023-08-30T04:16:12;0.20;;;0.20;;
19651;SDS011;9974;52.146;14.668;2023-08-30T04:18:38;0.10;;;0.10;;
19651;SDS011;9974;52.146;14.668;2023-08-30T04:21:03;0.57;;;0.57;;
19651;SDS011;9974;52.146;14.668;2023-08-30T04:23:31;0.10;;;0.10;;
19651;SDS011;9974;52.146;14.668;2023-08-30T04:25:57;0.20;;;0.20;;
19651;SDS011;9974;52.146;14.668;2023-08-30T04:28:22;0.30;;;0.30;;
19651;SDS011;9974;52.146;14.668;2023-08-30T04:30:48;0.45;;;0.45;;
19651;SDS011;9974;52.146;14.668;2023-08-30T04:33:14;0.52;;;0.52;;
19651;SDS011;9974;52.146;14.668;2023-08-30T04:35:39;0.40;;;0.40;;
19651;SDS011;9974;52.146;14.668;2023-08-30T04:38:05;0.10;;;0.10;;
19651;SDS011;9974;52.146;14.668;2023-08-30T04:40:31;1.85;;;1.13;;
19651;SDS011;9974;52.146;14.668;2023-08-30T04:43:00;0.50;;;0.40;;
19651;SDS011;9974;52.146;14.668;2023-08-30T04:45:25;0.57;;;0.57;;
19651;SDS011;9974;52.146;14.668;2023-08-30T04:47:52;0.60;;;0.60;;
19651;SDS011;9974;52.146;14.668;2023-08-30T04:50:18;1.42;;;0.65;;
19651;SDS011;9974;52.146;14.668;2023-08-30T04:52:44;1.25;;;1.05;;
19651;SDS011;9974;52.146;14.668;2023-08-30T04:55:09;1.40;;;0.90;;
19651;SDS011;9974;52.146;14.668;2023-08-30T04:57:35;0.35;;;0.35;;
19651;SDS011;9974;52.146;14.668;2023-08-30T05:00:01;0.10;;;0.10;;
19651;SDS011;9974;52.146;14.668;2023-08-30T05:02:29;0.20;;;0.20;;
19651;SDS011;9974;52.146;14.668;2023-08-30T05:04:56;0.32;;;0.32;;
19651;SDS011;9974;52.146;14.668;2023-08-30T05:07:21;0.38;;;0.20;;
19651;SDS011;9974;52.146;14.668;2023-08-30T05:09:48;1.25;;;1.15;;
19651;SDS011;9974;52.146;14.668;2023-08-30T05:12:13;0.10;;;0.10;;
19651;SDS011;9974;52.146;14.668;2023-08-30T05:14:39;3.17;;;0.98;;
19651;SDS011;9974;52.146;14.668;2023-08-30T05:17:06;0.85;;;0.68;;
19651;SDS011;9974;52.146;14.668;2023-08-30T05:19:32;0.10;;;0.10;;
19651;SDS011;9974;52.146;14.668;2023-08-30T05:21:57;0.47;;;0.47;;
19651;SDS011;9974;52.146;14.668;2023-08-30T05:24:23;0.22;;;0.22;;
19651;SDS011;9974;52.146;14.668;2023-08-30T05:26:49;0.32;;;0.32;;
19651;SDS011;9974;52.146;14.668;2023-08-30T05:29:15;0.57;;;0.57;;
19651;SDS011;9974;52.146;14.668;2023-08-30T05:31:41;0.43;;;0.43;;
19651;SDS011;9974;52.146;14.668;2023-08-30T05:34:07;0.80;;;0.80;;
19651;SDS011;9974;52.146;14.668;2023-08-30T05:36:32;0.55;;;0.55;;
19651;SDS011;9974;52.146;14.668;2023-08-30T05:38:58;0.20;;;0.20;;
19651;SDS011;9974;52.146;14.668;2023-08-30T05:41:24;3.03;;;1.27;;
19651;SDS011;9974;52.146;14.668;2023-08-30T05:43:49;1.15;;;1.05;;
19651;SDS011;9974;52.146;14.668;2023-08-30T05:46:16;0.55;;;0.55;;
19651;SDS011;9974;52.146;14.668;2023-08-30T05:48:42;0.13;;;0.13;;
19651;SDS011;9974;52.146;14.668;2023-08-30T05:51:08;0.35;;;0.35;;
19651;SDS011;9974;52.146;14.668;2023-08-30T05:53:34;0.20;;;0.20;;
19651;SDS011;9974;52.146;14.668;2023-08-30T05:55:59;1.30;;;0.90;;
19651;SDS011;9974;52.146;14.668;2023-08-30T05:58:25;1.50;;;0.90;;
19651;SDS011;9974;52.146;14.668;2023-08-30T06:00:51;0.30;;;0.30;;
19651;SDS011;9974;52.146;14.668;2023-08-30T06:03:16;0.40;;;0.40;;
19651;SDS011;9974;52.146;14.668;2023-08-30T06:05:42;0.50;;;0.50;;
19651;SDS011;9974;52.146;14.668;2023-08-30T06:08:08;0.30;;;0.30;;
19651;SDS011;9974;52.146;14.668;2023-08-30T06:10:34;1.23;;;0.90;;
19651;SDS011;9974;52.146;14.668;2023-08-30T06:13:01;0.10;;;0.10;;
19651;SDS011;9974;52.146;14.668;2023-08-30T06:15:27;0.25;;;0.25;;
19651;SDS011;9974;52.146;14.668;2023-08-30T06:17:53;0.40;;;0.40;;
19651;SDS011;9974;52.146;14.668;2023-08-30T06:20:19;0.77;;;0.77;;
19651;SDS011;9974;52.146;14.668;2023-08-30T06:22:44;0.30;;;0.30;;
19651;SDS011;9974;52.146;14.668;2023-08-30T06:25:10;1.50;;;1.15;;
19651;SDS011;9974;52.146;14.668;2023-08-30T06:27:40;0.85;;;0.85;;
19651;SDS011;9974;52.146;14.668;2023-08-30T06:30:08;0.15;;;0.15;;
19651;SDS011;9974;52.146;14.668;2023-08-30T06:32:35;0.30;;;0.30;;
19651;SDS011;9974;52.146;14.668;2023-08-30T06:35:01;1.45;;;0.95;;
19651;SDS011;9974;52.146;14.668;2023-08-30T06:37:27;0.35;;;0.35;;
19651;SDS011;9974;52.146;14.668;2023-08-30T06:39:53;0.43;;;0.30;;
19651;SDS011;9974;52.146;14.668;2023-08-30T06:42:19;1.17;;;0.95;;
19651;SDS011;9974;52.146;14.668;2023-08-30T06:44:44;0.45;;;0.45;;
19651;SDS011;9974;52.146;14.668;2023-08-30T06:47:10;0.52;;;0.50;;
19651;SDS011;9974;52.146;14.668;2023-08-30T06:49:36;0.38;;;0.38;;
19651;SDS011;9974;52.146;14.668;2023-08-30T06:52:01;0.20;;;0.20;;
19651;SDS011;9974;52.146;14.668;2023-08-30T06:54:29;0.25;;;0.25;;
19651;SDS011;9974;52.146;14.668;2023-08-30T06:56:58;0.60;;;0.45;;
19651;SDS011;9974;52.146;14.668;2023-08-30T06:59:27;2.88;;;2.28;;
19651;SDS011;9974;52.146;14.668;2023-08-30T07:01:53;4.93;;;1.55;;
19651;SDS011;9974;52.146;14.668;2023-08-30T07:04:19;1.48;;;1.38;;
19651;SDS011;9974;52.146;14.668;2023-08-30T07:06:45;2.97;;;2.70;;
19651;SDS011;9974;52.146;14.668;2023-08-30T07:09:11;3.58;;;2.03;;
19651;SDS011;9974;52.146;14.668;2023-08-30T07:11:39;5.35;;;1.40;;
19651;SDS011;9974;52.146;14.668;2023-08-30T07:14:09;0.52;;;0.52;;
19651;SDS011;9974;52.146;14.668;2023-08-30T07:16:35;4.68;;;1.58;;
19651;SDS011;9974;52.146;14.668;2023-08-30T07:19:01;1.20;;;0.60;;
19651;SDS011;9974;52.146;14.668;2023-08-30T07:21:27;9.15;;;0.90;;
19651;SDS011;9974;52.146;14.668;2023-08-30T07:23:52;0.55;;;0.55;;
19651;SDS011;9974;52.146;14.668;2023-08-30T07:26:18;0.63;;;0.40;;
19651;SDS011;9974;52.146;14.668;2023-08-30T07:28:44;0.30;;;0.30;;
19651;SDS011;9974;52.146;14.668;2023-08-30T07:31:11;1.27;;;0.75;;
19651;SDS011;9974;52.146;14.668;2023-08-30T07:33:40;0.28;;;0.28;;
19651;SDS011;9974;52.146;14.668;2023-08-30T07:36:06;1.42;;;0.52;;
19651;SDS011;9974;52.146;14.668;2023-08-30T07:38:33;0.10;;;0.10;;
19651;SDS011;9974;52.146;14.668;2023-08-30T07:40:59;0.32;;;0.20;;
19651;SDS011;9974;52.146;14.668;2023-08-30T07:43:25;0.95;;;0.50;;
19651;SDS011;9974;52.146;14.668;2023-08-30T07:45:51;0.43;;;0.43;;
19651;SDS011;9974;52.146;14.668;2023-08-30T07:48:17;0.95;;;0.70;;
19651;SDS011;9974;52.146;14.668;2023-08-30T07:50:42;1.25;;;1.15;;
19651;SDS011;9974;52.146;14.668;2023-08-30T07:53:08;2.10;;;1.83;;
19651;SDS011;9974;52.146;14.668;2023-08-30T07:55:35;0.73;;;0.52;;
19651;SDS011;9974;52.146;14.668;2023-08-30T07:58:01;1.35;;;1.13;;
19651;SDS011;9974;52.146;14.668;2023-08-30T08:00:28;0.65;;;0.65;;
19651;SDS011;9974;52.146;14.668;2023-08-30T08:02:54;0.45;;;0.45;;
19651;SDS011;9974;52.146;14.668;2023-08-30T08:05:20;1.25;;;0.35;;
19651;SDS011;9974;52.146;14.668;2023-08-30T08:07:49;0.00;;;0.00;;
19651;SDS011;9974;52.146;14.668;2023-08-30T08:10:16;0.57;;;0.57;;
19651;SDS011;9974;52.146;14.668;2023-08-30T08:12:42;0.00;;;0.00;;
19651;SDS011;9974;52.146;14.668;2023-08-30T08:15:08;0.35;;;0.35;;
19651;SDS011;9974;52.146;14.668;2023-08-30T08:17:34;0.80;;;0.55;;
19651;SDS011;9974;52.146;14.668;2023-08-30T08:20:00;0.85;;;0.75;;
19651;SDS011;9974;52.146;14.668;2023-08-30T08:22:26;7.50;;;4.25;;
19651;SDS011;9974;52.146;14.668;2023-08-30T08:24:51;9.77;;;6.15;;
19651;SDS011;9974;52.146;14.668;2023-08-30T08:27:18;8.05;;;5.72;;
19651;SDS011;9974;52.146;14.668;2023-08-30T08:29:44;8.90;;;8.00;;
19651;SDS011;9974;52.146;14.668;2023-08-30T08:32:10;7.05;;;4.25;;
19651;SDS011;9974;52.146;14.668;2023-08-30T08:34:35;4.07;;;2.53;;
19651;SDS011;9974;52.146;14.668;2023-08-30T08:37:01;0.22;;;0.22;;
19651;SDS011;9974;52.146;14.668;2023-08-30T08:39:27;0.88;;;0.50;;
19651;SDS011;9974;52.146;14.668;2023-08-30T08:41:52;0.28;;;0.28;;
19651;SDS011;9974;52.146;14.668;2023-08-30T08:44:19;0.52;;;0.52;;
19651;SDS011;9974;52.146;14.668;2023-08-30T08:46:47;1.50;;;0.90;;
19651;SDS011;9974;52.146;14.668;2023-08-30T08:49:15;2.63;;;2.42;;
19651;SDS011;9974;52.146;14.668;2023-08-30T08:51:41;2.67;;;1.70;;
19651;SDS011;9974;52.146;14.668;2023-08-30T08:54:08;0.57;;;0.57;;
19651;SDS011;9974;52.146;14.668;2023-08-30T08:56:36;2.20;;;1.33;;
19651;SDS011;9974;52.146;14.668;2023-08-30T08:59:03;0.35;;;0.35;;
19651;SDS011;9974;52.146;14.668;2023-08-30T09:01:33;2.53;;;2.20;;
19651;SDS011;9974;52.146;14.668;2023-08-30T09:04:01;1.33;;;1.23;;
19651;SDS011;9974;52.146;14.668;2023-08-30T09:06:44;0.85;;;0.85;;
19651;SDS011;9974;52.146;14.668;2023-08-30T09:09:10;0.52;;;0.52;;
19651;SDS011;9974;52.146;14.668;2023-08-30T09:11:37;1.00;;;0.52;;
19651;SDS011;9974;52.146;14.668;2023-08-30T09:14:02;0.20;;;0.20;;
19651;SDS011;9974;52.146;14.668;2023-08-30T09:16:28;0.77;;;0.60;;
19651;SDS011;9974;52.146;14.668;2023-08-30T09:19:00;1.48;;;1.10;;
19651;SDS011;9974;52.146;14.668;2023-08-30T09:21:28;0.50;;;0.50;;
19651;SDS011;9974;52.146;14.668;2023-08-30T09:23:58;1.05;;;0.77;;
19651;SDS011;9974;52.146;14.668;2023-08-30T09:26:32;0.35;;;0.35;;
19651;SDS011;9974;52.146;14.668;2023-08-30T09:29:04;1.27;;;0.80;;
19651;SDS011;9974;52.146;14.668;2023-08-30T09:31:35;0.17;;;0.17;;
19651;SDS011;9974;52.146;14.668;2023-08-30T09:34:02;0.70;;;0.70;;
19651;SDS011;9974;52.146;14.668;2023-08-30T09:36:35;0.25;;;0.25;;
19651;SDS011;9974;52.146;14.668;2023-08-30T09:39:06;0.38;;;0.32;;
19651;SDS011;9974;52.146;14.668;2023-08-30T09:41:37;0.57;;;0.55;;
19651;SDS011;9974;52.146;14.668;2023-08-30T09:44:10;2.63;;;0.85;;
19651;SDS011;9974;52.146;14.668;2023-08-30T09:46:40;1.00;;;0.60;;
19651;SDS011;9974;52.146;14.668;2023-08-30T09:49:11;0.10;;;0.10;;
19651;SDS011;9974;52.146;14.668;2023-08-30T09:51:38;0.00;;;0.00;;
19651;SDS011;9974;52.146;14.668;2023-08-30T09:54:07;0.08;;;0.08;;
19651;SDS011;9974;52.146;14.668;2023-08-30T09:56:46;0.30;;;0.30;;
19651;SDS011;9974;52.146;14.668;2023-08-30T09:59:13;0.30;;;0.30;;
19651;SDS011;9974;52.146;14.668;2023-08-30T10:01:40;0.30;;;0.30;;
19651;SDS011;9974;52.146;14.668;2023-08-30T10:04:08;2.42;;;1.00;;
19651;SDS011;9974;52.146;14.668;2023-08-30T10:06:35;1.65;;;0.85;;
19651;SDS011;9974;52.146;14.668;2023-08-30T10:09:02;0.08;;;0.08;;
19651;SDS011;9974;52.146;14.668;2023-08-30T10:11:33;0.03;;;0.03;;
19651;SDS011;9974;52.146;14.668;2023-08-30T10:14:04;0.08;;;0.08;;
19651;SDS011;9974;52.146;14.668;2023-08-30T10:16:41;0.08;;;0.08;;
19651;SDS011;9974;52.146;14.668;2023-08-30T10:19:26;0.20;;;0.20;;
19651;SDS011;9974;52.146;14.668;2023-08-30T10:21:59;0.45;;;0.43;;
19651;SDS011;9974;52.146;14.668;2023-08-30T10:24:41;0.00;;;0.00;;
19651;SDS011;9974;52.146;14.668;2023-08-30T10:27:10;0.88;;;0.80;;
19651;SDS011;9974;52.146;14.668;2023-08-30T10:29:38;0.20;;;0.20;;
19651;SDS011;9974;52.146;14.668;2023-08-30T10:32:06;0.00;;;0.00;;
19651;SDS011;9974;52.146;14.668;2023-08-30T10:34:32;0.00;;;0.00;;
19651;SDS011;9974;52.146;14.668;2023-08-30T10:37:00;0.10;;;0.10;;
19651;SDS011;9974;52.146;14.668;2023-08-30T10:39:32;0.17;;;0.10;;
19651;SDS011;9974;52.146;14.668;2023-08-30T10:42:00;0.35;;;0.25;;
19651;SDS011;9974;52.146;14.668;2023-08-30T10:44:33;0.00;;;0.00;;
19651;SDS011;9974;52.146;14.668;2023-08-30T10:47:01;0.00;;;0.00;;
19651;SDS011;9974;52.146;14.668;2023-08-30T10:49:27;0.30;;;0.15;;
19651;SDS011;9974;52.146;14.668;2023-08-30T10:51:54;0.03;;;0.03;;
19651;SDS011;9974;52.146;14.668;2023-08-30T10:54:22;0.10;;;0.10;;
19651;SDS011;9974;52.146;14.668;2023-08-30T10:59:20;0.65;;;0.65;;
19651;SDS011;9974;52.146;14.668;2023-08-30T11:01:48;0.00;;;0.00;;
19651;SDS011;9974;52.146;14.668;2023-08-30T11:04:17;0.30;;;0.20;;
19651;SDS011;9974;52.146;14.668;2023-08-30T11:06:47;0.75;;;0.75;;
19651;SDS011;9974;52.146;14.668;2023-08-30T11:09:14;1.55;;;0.30;;
19651;SDS011;9974;52.146;14.668;2023-08-30T11:11:47;0.20;;;0.20;;
19651;SDS011;9974;52.146;14.668;2023-08-30T11:14:14;0.40;;;0.15;;
19651;SDS011;9974;52.146;14.668;2023-08-30T11:16:41;0.10;;;0.03;;
19651;SDS011;9974;52.146;14.668;2023-08-30T11:19:08;0.40;;;0.40;;
19651;SDS011;9974;52.146;14.668;2023-08-30T11:21:36;0.38;;;0.38;;
19651;SDS011;9974;52.146;14.668;2023-08-30T11:24:04;0.60;;;0.38;;
19651;SDS011;9974;52.146;14.668;2023-08-30T11:26:31;0.10;;;0.10;;
19651;SDS011;9974;52.146;14.668;2023-08-30T11:28:57;0.43;;;0.43;;
19651;SDS011;9974;52.146;14.668;2023-08-30T11:31:23;3.60;;;1.05;;
19651;SDS011;9974;52.146;14.668;2023-08-30T11:33:53;0.30;;;0.30;;
19651;SDS011;9974;52.146;14.668;2023-08-30T11:36:22;0.30;;;0.30;;
19651;SDS011;9974;52.146;14.668;2023-08-30T11:38:51;0.00;;;0.00;;
19651;SDS011;9974;52.146;14.668;2023-08-30T11:41:20;0.47;;;0.43;;
19651;SDS011;9974;52.146;14.668;2023-08-30T11:43:47;3.33;;;1.75;;
19651;SDS011;9974;52.146;14.668;2023-08-30T11:46:13;1.00;;;0.63;;
19651;SDS011;9974;52.146;14.668;2023-08-30T11:48:39;1.23;;;0.68;;
19651;SDS011;9974;52.146;14.668;2023-08-30T11:51:07;0.65;;;0.65;;
19651;SDS011;9974;52.146;14.668;2023-08-30T11:53:36;0.55;;;0.55;;
19651;SDS011;9974;52.146;14.668;2023-08-30T11:56:03;0.00;;;0.00;;
19651;SDS011;9974;52.146;14.668;2023-08-30T11:58:34;0.08;;;0.08;;
19651;SDS011;9974;52.146;14.668;2023-08-30T12:01:01;0.10;;;0.10;;
19651;SDS011;9974;52.146;14.668;2023-08-30T12:03:29;0.32;;;0.32;;
19651;SDS011;9974;52.146;14.668;2023-08-30T12:05:55;0.10;;;0.10;;
19651;SDS011;9974;52.146;14.668;2023-08-30T12:08:23;0.20;;;0.20;;
19651;SDS011;9974;52.146;14.668;2023-08-30T12:10:56;0.00;;;0.00;;
19651;SDS011;9974;52.146;14.668;2023-08-30T12:13:26;0.28;;;0.28;;
19651;SDS011;9974;52.146;14.668;2023-08-30T12:15:54;0.17;;;0.17;;
19651;SDS011;9974;52.146;14.668;2023-08-30T12:18:29;0.45;;;0.38;;
19651;SDS011;9974;52.146;14.668;2023-08-30T12:21:01;1.15;;;0.63;;
19651;SDS011;9974;52.146;14.668;2023-08-30T12:23:29;0.98;;;0.60;;
19651;SDS011;9974;52.146;14.668;2023-08-30T12:26:04;0.52;;;0.52;;
19651;SDS011;9974;52.146;14.668;2023-08-30T12:28:40;0.22;;;0.20;;
19651;SDS011;9974;52.146;14.668;2023-08-30T12:31:09;0.10;;;0.10;;
19651;SDS011;9974;52.146;14.668;2023-08-30T12:33:35;0.00;;;0.00;;
19651;SDS011;9974;52.146;14.668;2023-08-30T12:36:02;0.15;;;0.15;;
19651;SDS011;9974;52.146;14.668;2023-08-30T12:38:29;0.25;;;0.10;;
19651;SDS011;9974;52.146;14.668;2023-08-30T12:40:55;0.82;;;0.47;;
19651;SDS011;9974;52.146;14.668;2023-08-30T12:43:21;10.63;;;3.35;;
19651;SDS011;9974;52.146;14.668;2023-08-30T12:45:48;7.57;;;1.45;;
19651;SDS011;9974;52.146;14.668;2023-08-30T12:48:16;0.45;;;0.30;;
19651;SDS011;9974;52.146;14.668;2023-08-30T12:50:43;0.10;;;0.10;;
19651;SDS011;9974;52.146;14.668;2023-08-30T12:53:11;0.13;;;0.13;;
19651;SDS011;9974;52.146;14.668;2023-08-30T12:55:37;0.03;;;0.03;;
19651;SDS011;9974;52.146;14.668;2023-08-30T12:58:05;0.88;;;0.80;;
19651;SDS011;9974;52.146;14.668;2023-08-30T13:00:31;0.28;;;0.22;;
19651;SDS011;9974;52.146;14.668;2023-08-30T13:02:58;0.00;;;0.00;;
19651;SDS011;9974;52.146;14.668;2023-08-30T13:05:24;0.00;;;0.00;;
19651;SDS011;9974;52.146;14.668;2023-08-30T13:07:50;0.40;;;0.30;;
19651;SDS011;9974;52.146;14.668;2023-08-30T13:10:16;0.10;;;0.10;;
19651;SDS011;9974;52.146;14.668;2023-08-30T13:12:41;0.00;;;0.00;;
19651;SDS011;9974;52.146;14.668;2023-08-30T13:15:08;0.00;;;0.00;;
19651;SDS011;9974;52.146;14.668;2023-08-30T13:17:34;1.98;;;0.77;;
19651;SDS011;9974;52.146;14.668;2023-08-30T13:20:00;0.10;;;0.10;;
19651;SDS011;9974;52.146;14.668;2023-08-30T13:22:26;0.10;;;0.10;;
19651;SDS011;9974;52.146;14.668;2023-08-30T13:24:52;0.00;;;0.00;;
19651;SDS011;9974;52.146;14.668;2023-08-30T13:27:18;1.20;;;1.10;;
19651;SDS011;9974;52.146;14.668;2023-08-30T13:29:44;0.08;;;0.08;;
19651;SDS011;9974;52.146;14.668;2023-08-30T13:32:10;0.00;;;0.00;;
19651;SDS011;9974;52.146;14.668;2023-08-30T13:34:36;0.20;;;0.20;;
19651;SDS011;9974;52.146;14.668;2023-08-30T13:37:02;0.08;;;0.08;;
19651;SDS011;9974;52.146;14.668;2023-08-30T13:39:28;0.15;;;0.15;;
19651;SDS011;9974;52.146;14.668;2023-08-30T13:41:54;0.20;;;0.20;;
19651;SDS011;9974;52.146;14.668;2023-08-30T13:44:20;0.38;;;0.20;;
19651;SDS011;9974;52.146;14.668;2023-08-30T13:46:45;0.10;;;0.10;;
19651;SDS011;9974;52.146;14.668;2023-08-30T13:49:13;0.00;;;0.00;;
19651;SDS011;9974;52.146;14.668;2023-08-30T13:51:40;0.17;;;0.17;;
19651;SDS011;9974;52.146;14.668;2023-08-30T13:54:06;0.05;;;0.05;;
19651;SDS011;9974;52.146;14.668;2023-08-30T13:56:32;0.00;;;0.00;;
19651;SDS011;9974;52.146;14.668;2023-08-30T13:58:58;1.23;;;1.13;;
19651;SDS011;9974;52.146;14.668;2023-08-30T14:01:23;0.08;;;0.08;;
19651;SDS011;9974;52.146;14.668;2023-08-30T14:03:49;0.00;;;0.00;;
19651;SDS011;9974;52.146;14.668;2023-08-30T14:06:15;0.00;;;0.00;;
19651;SDS011;9974;52.146;14.668;2023-08-30T14:08:41;0.10;;;0.10;;
19651;SDS011;9974;52.146;14.668;2023-08-30T14:11:08;0.00;;;0.00;;
19651;SDS011;9974;52.146;14.668;2023-08-30T14:13:34;0.00;;;0.00;;
19651;SDS011;9974;52.146;14.668;2023-08-30T14:16:00;0.08;;;0.08;;
19651;SDS011;9974;52.146;14.668;2023-08-30T14:18:29;0.10;;;0.10;;
19651;SDS011;9974;52.146;14.668;2023-08-30T14:20:55;0.00;;;0.00;;
19651;SDS011;9974;52.146;14.668;2023-08-30T14:23:25;0.00;;;0.00;;
19651;SDS011;9974;52.146;14.668;2023-08-30T14:25:57;0.80;;;0.40;;
19651;SDS011;9974;52.146;14.668;2023-08-30T14:28:35;0.28;;;0.20;;
19651;SDS011;9974;52.146;14.668;2023-08-30T14:31:02;0.00;;;0.00;;
19651;SDS011;9974;52.146;14.668;2023-08-30T14:33:29;1.45;;;0.75;;
19651;SDS011;9974;52.146;14.668;2023-08-30T14:35:55;0.10;;;0.10;;
19651;SDS011;9974;52.146;14.668;2023-08-30T14:38:21;0.43;;;0.10;;
19651;SDS011;9974;52.146;14.668;2023-08-30T14:40:54;0.20;;;0.20;;
19651;SDS011;9974;52.146;14.668;2023-08-30T14:43:23;0.65;;;0.47;;
19651;SDS011;9974;52.146;14.668;2023-08-30T14:45:49;0.08;;;0.08;;
19651;SDS011;9974;52.146;14.668;2023-08-30T14:48:15;0.10;;;0.10;;
19651;SDS011;9974;52.146;14.668;2023-08-30T14:50:41;0.08;;;0.08;;
19651;SDS011;9974;52.146;14.668;2023-08-30T14:53:06;0.28;;;0.28;;
19651;SDS011;9974;52.146;14.668;2023-08-30T14:55:33;0.30;;;0.30;;